Time;durP1;ratioP1;P1;durP2;ratioP2;P2;SDS_P1;SDS_P2;PMS_P1;PMS_P2;Temp;Humidity;BMP_temperature;BMP_pressure;BME280_temperature;BME280_humidity;BME280_pressure;Samples;Min_cycle;Max_cycle;Signal;HPM_P1;HPM_P2
2023/06/29 00:01:47;;;;;;;3.28;2.42;;;19.20;65.60;;;;;;5031222;28;20029;-56
2023/06/29 00:04:21;;;;;;;2.20;2.05;;;19.10;65.60;;;;;;5031056;28;20452;-56
2023/06/29 00:06:49;;;;;;;2.22;2.00;;;19.10;65.50;;;;;;5031439;28;20032;-55
2023/06/29 00:09:16;;;;;;;2.30;2.10;;;19.10;65.80;;;;;;5031031;28;20030;-55
2023/06/29 00:11:43;;;;;;;2.20;2.00;;;19.10;65.80;;;;;;5031343;28;20029;-55
2023/06/29 00:14:08;;;;;;;2.33;2.10;;;19.10;65.90;;;;;;5031279;28;20072;-51
2023/06/29 00:16:35;;;;;;;2.30;2.08;;;19.10;66.00;;;;;;5031218;28;20029;-56
2023/06/29 00:19:01;;;;;;;3.55;2.88;;;19.10;66.20;;;;;;5031317;28;20034;-56
2023/06/29 00:21:28;;;;;;;3.25;2.60;;;19.00;66.10;;;;;;5030953;28;20025;-56
2023/06/29 00:23:54;;;;;;;2.75;2.42;;;19.10;66.10;;;;;;5031182;28;20021;-56
2023/06/29 00:26:20;;;;;;;2.50;2.20;;;19.10;66.00;;;;;;5031167;28;20026;-56
2023/06/29 00:28:46;;;;;;;2.38;2.22;;;19.10;66.00;;;;;;5031215;28;20026;-55
2023/06/29 00:31:12;;;;;;;4.07;2.25;;;19.10;66.10;;;;;;5030883;28;20040;-56
2023/06/29 00:33:37;;;;;;;2.50;2.20;;;19.10;66.10;;;;;;5031073;28;20037;-54
2023/06/29 00:36:03;;;;;;;2.20;2.00;;;19.10;66.20;;;;;;5030796;28;20030;-56
2023/06/29 00:38:29;;;;;;;2.88;2.30;;;19.10;66.10;;;;;;5030826;28;20026;-52
2023/06/29 00:40:55;;;;;;;2.97;2.17;;;19.00;66.10;;;;;;5030325;28;20456;-52
2023/06/29 00:43:20;;;;;;;3.10;2.20;;;19.00;66.00;;;;;;5030731;28;20397;-55
2023/06/29 00:45:46;;;;;;;2.40;2.10;;;19.00;66.10;;;;;;5031038;28;20034;-56
2023/06/29 00:48:12;;;;;;;2.72;2.05;;;19.00;66.10;;;;;;5030731;28;20018;-55
2023/06/29 00:50:39;;;;;;;2.28;2.08;;;19.00;66.10;;;;;;5030829;28;20033;-56
2023/06/29 00:53:05;;;;;;;2.40;2.20;;;19.00;66.10;;;;;;5030711;28;20040;-55
2023/06/29 00:55:30;;;;;;;2.53;2.33;;;19.00;66.10;;;;;;5030930;28;20425;-55
2023/06/29 00:57:56;;;;;;;2.83;2.10;;;18.90;66.10;;;;;;5030654;28;20022;-56
2023/06/29 01:00:22;;;;;;;2.90;1.92;;;18.90;66.10;;;;;;5030550;28;20037;-54
2023/06/29 01:02:48;;;;;;;2.88;2.40;;;18.90;66.10;;;;;;5030946;28;20052;-56
2023/06/29 01:05:16;;;;;;;2.30;2.05;;;18.90;66.30;;;;;;5030484;28;20059;-56
2023/06/29 01:07:50;;;;;;;2.70;1.92;;;18.80;66.20;;;;;;5030850;28;20362;-56
2023/06/29 01:10:20;;;;;;;2.20;2.00;;;18.80;66.30;;;;;;5033162;28;20040;-55
2023/06/29 01:12:48;;;;;;;3.03;2.10;;;18.80;66.60;;;;;;5034149;28;20495;-55
2023/06/29 01:15:15;;;;;;;4.32;2.20;;;18.80;66.60;;;;;;5034679;28;20032;-55
2023/06/29 01:17:41;;;;;;;3.33;2.00;;;18.70;66.50;;;;;;5034084;28;20032;-56
2023/06/29 01:20:11;;;;;;;2.38;2.17;;;18.70;66.60;;;;;;5033833;28;20037;-56
2023/06/29 01:22:41;;;;;;;3.00;2.37;;;18.70;66.70;;;;;;5034322;28;20176;-56
2023/06/29 01:25:08;;;;;;;2.33;1.90;;;18.70;66.80;;;;;;5033997;28;20261;-56
2023/06/29 01:27:34;;;;;;;2.70;2.20;;;18.60;66.80;;;;;;5034100;28;20021;-56
2023/06/29 01:30:01;;;;;;;2.50;2.30;;;18.60;66.90;;;;;;5031037;28;20481;-56
2023/06/29 01:32:33;;;;;;;2.50;2.00;;;18.60;67.00;;;;;;5033667;28;20029;-55
2023/06/29 01:35:00;;;;;;;2.20;2.00;;;18.60;67.00;;;;;;5034098;28;20034;-56
2023/06/29 01:37:39;;;;;;;2.67;2.17;;;18.50;67.00;;;;;;5033697;28;20104;-56
2023/06/29 01:40:08;;;;;;;2.20;2.00;;;18.50;67.20;;;;;;5033655;28;20037;-56
2023/06/29 01:42:37;;;;;;;2.20;2.00;;;18.50;67.40;;;;;;5032058;28;20037;-56
2023/06/29 01:45:06;;;;;;;2.60;2.13;;;18.50;67.50;;;;;;5033320;28;20052;-56
2023/06/29 01:47:32;;;;;;;2.28;2.08;;;18.50;67.50;;;;;;5033433;28;20025;-55
2023/06/29 01:49:59;;;;;;;2.20;2.00;;;18.50;67.60;;;;;;5033487;28;20120;-56
2023/06/29 01:52:25;;;;;;;3.08;2.08;;;18.50;67.60;;;;;;5033273;28;20029;-55
2023/06/29 01:54:51;;;;;;;1.92;1.83;;;18.50;67.60;;;;;;5030303;28;20120;-53
2023/06/29 01:57:17;;;;;;;3.42;2.30;;;18.50;67.80;;;;;;5033648;28;20531;-56
2023/06/29 01:59:44;;;;;;;2.15;1.95;;;18.50;67.70;;;;;;5033406;28;20033;-53
2023/06/29 02:02:10;;;;;;;2.30;2.03;;;18.50;67.70;;;;;;5033299;28;20033;-56
2023/06/29 02:04:35;;;;;;;2.17;1.95;;;18.50;67.80;;;;;;5033122;28;20033;-56
2023/06/29 02:07:01;;;;;;;1.85;1.73;;;18.50;67.70;;;;;;5033157;28;20021;-56
2023/06/29 02:09:27;;;;;;;2.35;2.05;;;18.40;67.70;;;;;;5033405;28;20096;-55
2023/06/29 02:11:53;;;;;;;2.65;2.05;;;18.40;67.70;;;;;;5033048;28;20025;-56
2023/06/29 02:14:18;;;;;;;2.25;1.80;;;18.40;67.80;;;;;;5032963;28;20021;-55
2023/06/29 02:16:46;;;;;;;2.50;2.05;;;18.40;67.70;;;;;;5033215;28;20025;-56
2023/06/29 02:19:12;;;;;;;2.35;1.98;;;18.40;67.80;;;;;;5032902;28;20021;-55
2023/06/29 02:21:37;;;;;;;2.08;1.90;;;18.40;67.90;;;;;;5032682;28;20478;-56
2023/06/29 02:24:03;;;;;;;2.15;2.00;;;18.40;67.90;;;;;;5032816;28;20021;-56
2023/06/29 02:26:29;;;;;;;2.10;1.90;;;18.40;67.90;;;;;;5032875;28;20072;-55
2023/06/29 02:28:55;;;;;;;1.98;1.70;;;18.40;67.90;;;;;;5032776;28;20033;-56
2023/06/29 02:31:20;;;;;;;2.08;1.70;;;18.40;68.00;;;;;;5033336;28;20030;-56
2023/06/29 02:33:47;;;;;;;2.25;2.05;;;18.40;68.10;;;;;;5032943;28;20075;-52
2023/06/29 02:36:12;;;;;;;2.20;1.70;;;18.40;68.00;;;;;;5032669;28;20554;-52
2023/06/29 02:38:38;;;;;;;2.58;2.10;;;18.40;68.00;;;;;;5032532;28;20033;-56
2023/06/29 02:41:04;;;;;;;2.25;1.98;;;18.50;68.20;;;;;;5032599;28;20102;-55
2023/06/29 02:43:29;;;;;;;2.08;1.88;;;18.50;68.10;;;;;;5032405;28;20362;-56
2023/06/29 02:45:55;;;;;;;2.58;2.20;;;18.60;67.90;;;;;;5032676;28;20022;-56
2023/06/29 02:48:20;;;;;;;2.42;1.92;;;18.60;68.00;;;;;;5032335;28;20025;-56
2023/06/29 02:50:46;;;;;;;2.67;2.03;;;18.70;68.00;;;;;;5032282;28;20064;-55
2023/06/29 02:53:16;;;;;;;2.40;2.15;;;18.70;67.90;;;;;;5032261;28;20490;-55
2023/06/29 02:55:41;;;;;;;2.72;1.98;;;18.80;67.70;;;;;;5032455;28;20495;-55
2023/06/29 02:58:07;;;;;;;2.47;2.28;;;18.80;67.70;;;;;;5032217;28;20064;-56
2023/06/29 03:00:33;;;;;;;3.38;2.38;;;18.80;67.70;;;;;;5032045;28;20021;-56
2023/06/29 03:02:58;;;;;;;3.75;2.50;;;18.90;67.80;;;;;;5032050;28;20587;-55
2023/06/29 03:05:24;;;;;;;2.67;2.28;;;18.90;68.40;;;;;;5031882;28;20041;-55
2023/06/29 03:07:49;;;;;;;4.50;2.38;;;19.00;67.90;;;;;;5032041;28;20029;-56
2023/06/29 03:10:15;;;;;;;2.53;2.33;;;19.00;67.70;;;;;;5032032;28;20080;-56
2023/06/29 03:12:41;;;;;;;3.42;2.10;;;19.00;67.80;;;;;;5032107;28;20026;-56
2023/06/29 03:15:07;;;;;;;2.70;2.22;;;19.00;67.60;;;;;;5031923;28;20477;-56
2023/06/29 03:17:33;;;;;;;2.58;2.05;;;19.00;67.70;;;;;;5032067;28;20025;-56
2023/06/29 03:19:58;;;;;;;2.50;2.30;;;19.10;67.80;;;;;;5031702;28;20371;-56
2023/06/29 03:22:27;;;;;;;2.20;2.00;;;19.10;67.60;;;;;;5031640;28;20033;-53
2023/06/29 03:24:53;;;;;;;2.90;2.40;;;19.10;67.60;;;;;;5031662;28;20477;-55
2023/06/29 03:27:19;;;;;;;2.10;1.88;;;19.10;67.60;;;;;;5031671;28;20083;-53
2023/06/29 03:29:49;;;;;;;2.53;2.28;;;19.20;67.70;;;;;;5031577;28;20061;-54
2023/06/29 03:32:14;;;;;;;2.35;2.15;;;19.20;68.40;;;;;;5027635;28;20041;-56
2023/06/29 03:34:40;;;;;;;2.67;2.20;;;19.30;67.80;;;;;;5031807;28;20033;-56
2023/06/29 03:37:05;;;;;;;2.45;2.25;;;19.50;68.40;;;;;;5030688;28;20370;-57
2023/06/29 03:39:31;;;;;;;1.98;1.88;;;19.80;69.30;;;;;;5031540;28;20029;-56
2023/06/29 03:41:57;;;;;;;2.40;2.20;;;20.40;69.40;;;;;;5031511;28;20041;-57
2023/06/29 03:44:22;;;;;;;3.85;1.92;;;21.00;69.10;;;;;;5029429;28;20029;-56
2023/06/29 03:46:48;;;;;;;2.03;1.85;;;21.60;67.90;;;;;;5029894;28;20093;-57
2023/06/29 03:49:13;;;;;;;1.60;1.50;;;22.40;66.90;;;;;;5029433;28;20018;-55
2023/06/29 03:51:39;;;;;;;2.47;1.88;;;23.30;65.70;;;;;;5029360;28;20474;-56
2023/06/29 03:54:05;;;;;;;2.28;2.00;;;24.30;64.10;;;;;;5029519;28;20039;-56
2023/06/29 03:56:32;;;;;;;2.53;1.90;;;25.30;62.70;;;;;;5029604;28;20026;-57
2023/06/29 03:58:58;;;;;;;2.22;1.75;;;26.30;61.10;;;;;;5030826;28;20028;-58
2023/06/29 04:01:23;;;;;;;3.33;1.90;;;27.20;59.60;;;;;;5031138;28;20037;-56
2023/06/29 04:03:50;;;;;;;2.28;1.98;;;28.00;58.40;;;;;;5030325;28;20025;-57
2023/06/29 04:06:15;;;;;;;3.15;1.55;;;28.70;57.00;;;;;;5029406;28;20033;-57
2023/06/29 04:08:41;;;;;;;2.60;2.00;;;29.20;56.60;;;;;;5029563;28;20025;-57
2023/06/29 04:11:08;;;;;;;1.83;1.73;;;29.50;55.20;;;;;;5029959;28;20061;-57
2023/06/29 04:13:33;;;;;;;3.00;1.70;;;29.90;54.50;;;;;;5029604;28;20044;-57
2023/06/29 04:15:59;;;;;;;1.42;1.33;;;30.20;53.70;;;;;;5029537;28;20112;-57
2023/06/29 04:18:25;;;;;;;1.90;1.70;;;30.60;53.50;;;;;;5029549;28;20121;-57
2023/06/29 04:20:51;;;;;;;1.45;1.35;;;31.10;52.80;;;;;;5030921;28;20438;-58
2023/06/29 04:23:17;;;;;;;1.55;1.45;;;31.60;52.20;;;;;;5031274;28;20104;-58
2023/06/29 04:25:43;;;;;;;3.25;1.88;;;32.20;51.50;;;;;;5031249;28;20112;-51
2023/06/29 04:28:09;;;;;;;2.17;1.67;;;32.70;50.60;;;;;;5031198;28;20109;-55
2023/06/29 04:30:38;;;;;;;1.40;1.30;;;33.20;50.20;;;;;;5031210;28;20033;-53
2023/06/29 04:33:09;;;;;;;0.95;0.95;;;33.80;49.80;;;;;;5031001;28;20037;-56
2023/06/29 04:35:43;;;;;;;1.42;1.30;;;34.40;49.10;;;;;;5031347;28;20096;-51
2023/06/29 04:38:09;;;;;;;1.20;1.10;;;34.90;48.50;;;;;;5031149;28;20032;-55
2023/06/29 04:40:36;;;;;;;1.17;1.10;;;35.40;47.80;;;;;;5031068;28;20520;-55
2023/06/29 04:43:02;;;;;;;0.82;0.82;;;35.80;47.30;;;;;;5031143;28;20376;-55
2023/06/29 04:45:31;;;;;;;1.05;0.88;;;36.10;46.30;;;;;;5033823;28;20040;-55
2023/06/29 04:47:57;;;;;;;1.08;0.82;;;36.30;46.20;;;;;;5034900;28;20032;-54
2023/06/29 04:50:31;;;;;;;1.00;1.00;;;36.50;45.90;;;;;;5034575;28;20034;-55
2023/06/29 04:52:58;;;;;;;0.90;0.80;;;36.80;45.60;;;;;;5034860;28;20384;-55
2023/06/29 04:55:25;;;;;;;1.48;1.15;;;37.20;45.30;;;;;;5034799;28;20030;-55
2023/06/29 04:57:51;;;;;;;0.63;0.50;;;37.50;45.00;;;;;;5034430;28;20470;-55
2023/06/29 05:00:19;;;;;;;0.70;0.70;;;37.70;44.70;;;;;;5034359;28;20523;-55
2023/06/29 05:02:45;;;;;;;0.80;0.80;;;38.00;44.40;;;;;;5034674;28;20036;-52
2023/06/29 05:05:11;;;;;;;0.73;0.73;;;38.00;43.90;;;;;;5034550;28;20037;-55
2023/06/29 05:07:41;;;;;;;2.35;0.98;;;37.90;44.00;;;;;;5034603;28;20156;-54
2023/06/29 05:10:07;;;;;;;0.85;0.80;;;37.80;43.80;;;;;;5034302;28;20075;-55
2023/06/29 05:12:32;;;;;;;0.82;0.60;;;38.00;43.50;;;;;;5034526;28;20482;-55
2023/06/29 05:14:58;;;;;;;1.40;1.00;;;37.80;43.10;;;;;;5034445;28;20032;-55
2023/06/29 05:17:24;;;;;;;1.25;1.15;;;37.20;42.80;;;;;;5033871;28;20028;-55
2023/06/29 05:19:49;;;;;;;1.55;1.27;;;36.40;42.70;;;;;;5033273;28;20033;-54
2023/06/29 05:22:15;;;;;;;1.40;1.02;;;35.40;43.20;;;;;;5032999;28;20022;-54
2023/06/29 05:24:41;;;;;;;1.75;1.00;;;34.30;43.70;;;;;;5028789;28;20025;-55
2023/06/29 05:27:07;;;;;;;3.30;2.17;;;33.40;44.30;;;;;;5032380;28;20033;-53
2023/06/29 05:29:33;;;;;;;2.20;1.88;;;32.50;44.90;;;;;;5029649;28;20029;-53
2023/06/29 05:31:58;;;;;;;1.98;1.77;;;31.70;45.40;;;;;;5029346;28;20030;-51
2023/06/29 05:34:24;;;;;;;2.28;1.65;;;31.10;45.90;;;;;;5053159;28;20107;-53
2023/06/29 05:36:49;;;;;;;2.72;1.80;;;30.40;46.40;;;;;;5043781;28;20021;-48
2023/06/29 05:39:15;;;;;;;2.85;1.88;;;29.80;47.00;;;;;;5047479;28;20043;-56
2023/06/29 05:41:41;;;;;;;1.35;1.25;;;29.20;47.40;;;;;;5042414;28;20044;-54
2023/06/29 05:44:07;;;;;;;2.53;1.40;;;28.70;48.10;;;;;;5042303;28;20036;-56
2023/06/29 05:46:36;;;;;;;1.67;1.58;;;28.30;48.50;;;;;;5032528;28;20033;-57
2023/06/29 05:49:02;;;;;;;2.00;1.80;;;27.90;48.70;;;;;;5034360;28;20033;-56
2023/06/29 05:51:27;;;;;;;2.05;1.75;;;27.50;49.20;;;;;;5040543;28;20436;-56
2023/06/29 05:53:53;;;;;;;2.25;1.90;;;27.00;49.50;;;;;;5048183;28;20036;-56
2023/06/29 05:56:19;;;;;;;1.80;1.48;;;26.60;50.00;;;;;;5049362;28;20032;-54
2023/06/29 05:58:46;;;;;;;2.35;1.60;;;26.20;50.50;;;;;;5038203;28;20021;-56
2023/06/29 06:01:12;;;;;;;1.77;1.38;;;25.80;50.90;;;;;;5042891;28;20091;-49
2023/06/29 06:03:38;;;;;;;1.55;1.23;;;25.50;51.40;;;;;;5033473;28;20104;-56
2023/06/29 06:06:04;;;;;;;2.15;1.60;;;25.20;51.70;;;;;;5032379;28;20143;-54
2023/06/29 06:08:29;;;;;;;1.63;1.50;;;24.90;52.20;;;;;;5039127;28;20515;-54
2023/06/29 06:10:55;;;;;;;1.77;1.30;;;24.60;52.70;;;;;;5027228;28;20135;-54
2023/06/29 06:13:21;;;;;;;1.40;1.10;;;24.40;53.20;;;;;;5024440;28;20029;-55
2023/06/29 06:15:46;;;;;;;2.00;1.33;;;24.30;53.70;;;;;;5029067;28;20029;-55
2023/06/29 06:18:12;;;;;;;2.30;1.88;;;24.10;54.00;;;;;;5027565;28;20021;-54
2023/06/29 06:20:37;;;;;;;1.90;1.80;;;23.90;54.30;;;;;;5030629;28;20038;-55
2023/06/29 06:23:03;;;;;;;1.70;1.52;;;23.80;54.60;;;;;;5037058;28;20030;-53
2023/06/29 06:25:29;;;;;;;2.03;1.35;;;23.70;55.00;;;;;;5032843;28;20057;-56
2023/06/29 06:27:54;;;;;;;1.50;1.40;;;23.60;55.30;;;;;;5029897;28;20556;-54
2023/06/29 06:30:22;;;;;;;1.88;1.50;;;23.50;55.40;;;;;;5028865;28;20026;-53
2023/06/29 06:32:49;;;;;;;2.45;1.70;;;23.40;55.80;;;;;;5026835;28;20536;-55
2023/06/29 06:35:16;;;;;;;1.45;1.33;;;23.30;56.20;;;;;;5030849;28;20617;-53
2023/06/29 06:37:42;;;;;;;1.52;1.42;;;23.20;56.30;;;;;;5037933;28;20455;-55
2023/06/29 06:40:08;;;;;;;1.42;1.15;;;23.20;56.50;;;;;;5027357;28;20492;-55
2023/06/29 06:42:38;;;;;;;2.70;1.60;;;23.10;56.70;;;;;;5033480;28;20112;-55
2023/06/29 06:45:04;;;;;;;2.03;1.55;;;23.10;57.10;;;;;;5014045;28;20503;-53
2023/06/29 06:47:33;;;;;;;2.53;1.40;;;23.00;57.20;;;;;;5026339;28;20026;-55
2023/06/29 06:50:00;;;;;;;1.45;1.20;;;22.90;57.60;;;;;;5022464;28;20038;-55
2023/06/29 06:52:26;;;;;;;2.22;1.40;;;22.80;57.70;;;;;;5026534;28;20041;-52
2023/06/29 06:54:52;;;;;;;3.13;1.60;;;22.70;58.00;;;;;;5026761;28;20083;-52
2023/06/29 06:57:19;;;;;;;1.63;1.52;;;22.60;58.30;;;;;;5025684;28;20056;-55
2023/06/29 06:59:44;;;;;;;1.58;1.48;;;22.50;58.40;;;;;;5019452;28;20502;-52
2023/06/29 07:02:12;;;;;;;1.52;1.42;;;22.50;58.70;;;;;;5015552;28;20041;-55
2023/06/29 07:04:38;;;;;;;1.30;1.08;;;22.40;59.10;;;;;;5032990;28;20053;-55
2023/06/29 07:07:04;;;;;;;1.50;1.40;;;22.30;59.20;;;;;;5020276;28;20067;-55
2023/06/29 07:09:30;;;;;;;1.10;1.10;;;22.30;59.50;;;;;;5018691;28;20025;-55
2023/06/29 07:11:56;;;;;;;1.75;1.63;;;22.30;59.80;;;;;;5025234;28;20091;-56
2023/06/29 07:14:22;;;;;;;1.63;1.52;;;22.30;59.90;;;;;;5025475;28;20057;-52
2023/06/29 07:16:48;;;;;;;1.70;1.60;;;22.30;60.00;;;;;;5031522;28;20022;-55
2023/06/29 07:19:15;;;;;;;1.50;1.40;;;22.40;60.10;;;;;;5026378;28;20025;-51
2023/06/29 07:21:41;;;;;;;2.90;1.70;;;22.40;60.10;;;;;;5021708;28;20041;-55
2023/06/29 07:24:08;;;;;;;2.13;1.90;;;22.40;60.10;;;;;;5018731;28;20026;-56
2023/06/29 07:26:34;;;;;;;2.20;1.88;;;22.40;60.20;;;;;;5016291;28;20029;-56
2023/06/29 07:29:00;;;;;;;2.83;1.90;;;22.30;60.30;;;;;;5032173;28;20036;-55
2023/06/29 07:31:26;;;;;;;2.70;2.50;;;22.30;60.40;;;;;;5025916;28;20034;-54
2023/06/29 07:33:53;;;;;;;1.92;1.75;;;22.30;60.50;;;;;;5030192;28;20029;-56
2023/06/29 07:36:23;;;;;;;2.30;2.10;;;22.20;60.80;;;;;;5015729;28;20031;-56
2023/06/29 07:38:49;;;;;;;2.05;1.85;;;22.10;61.00;;;;;;5012402;28;20051;-56
2023/06/29 07:41:17;;;;;;;2.05;1.92;;;22.10;61.10;;;;;;5024435;28;20037;-51
2023/06/29 07:43:48;;;;;;;1.90;1.80;;;22.10;61.40;;;;;;5018055;28;20382;-53
2023/06/29 07:46:13;;;;;;;3.38;2.00;;;22.10;61.60;;;;;;5027348;28;20037;-52
2023/06/29 07:48:39;;;;;;;1.83;1.67;;;22.10;61.80;;;;;;5029600;28;20032;-53
2023/06/29 07:51:05;;;;;;;2.40;2.20;;;22.10;62.00;;;;;;5023682;28;20124;-56
2023/06/29 07:53:31;;;;;;;2.35;2.03;;;22.00;62.10;;;;;;5023284;28;20029;-55
2023/06/29 07:56:00;;;;;;;2.50;1.85;;;22.00;62.30;;;;;;5022690;28;20037;-56
2023/06/29 07:58:29;;;;;;;3.40;2.30;;;22.00;62.40;;;;;;5028058;28;20037;-54
2023/06/29 08:00:55;;;;;;;2.42;2.20;;;22.00;62.50;;;;;;5021569;28;20033;-53
2023/06/29 08:03:22;;;;;;;2.00;1.90;;;22.00;62.70;;;;;;5027445;28;20075;-52
2023/06/29 08:05:48;;;;;;;1.77;1.65;;;22.00;62.80;;;;;;5020894;28;20107;-58
2023/06/29 08:08:14;;;;;;;1.90;1.80;;;22.00;62.90;;;;;;5016983;28;20033;-53
2023/06/29 08:10:40;;;;;;;2.20;2.10;;;22.00;62.90;;;;;;5025774;28;20068;-57
2023/06/29 08:13:06;;;;;;;2.55;2.17;;;22.10;63.10;;;;;;5027025;28;20049;-55
2023/06/29 08:15:32;;;;;;;2.45;2.13;;;22.20;63.20;;;;;;5022299;28;20053;-58
2023/06/29 08:17:57;;;;;;;5.60;2.40;;;22.30;63.10;;;;;;5028279;28;20043;-57
2023/06/29 08:20:23;;;;;;;2.60;2.40;;;22.30;63.10;;;;;;5031213;28;20411;-57
2023/06/29 08:22:49;;;;;;;2.10;2.00;;;22.40;63.30;;;;;;5022145;28;20056;-56
2023/06/29 08:25:15;;;;;;;2.53;2.33;;;22.50;63.20;;;;;;5028407;28;20055;-55
2023/06/29 08:27:41;;;;;;;2.05;1.92;;;22.50;63.20;;;;;;5025817;28;20444;-52
2023/06/29 08:30:08;;;;;;;2.40;2.10;;;22.50;63.10;;;;;;5026446;28;20101;-54
2023/06/29 08:32:34;;;;;;;2.35;2.15;;;22.50;63.00;;;;;;5024182;28;20029;-52
2023/06/29 08:34:59;;;;;;;2.50;2.30;;;22.50;63.00;;;;;;5031351;28;20409;-58
2023/06/29 08:37:28;;;;;;;2.40;2.20;;;22.50;63.00;;;;;;5032677;28;20029;-57
2023/06/29 08:39:56;;;;;;;2.70;2.50;;;22.50;63.20;;;;;;5023832;28;20362;-57
2023/06/29 08:42:23;;;;;;;2.40;2.20;;;22.50;63.60;;;;;;5024283;28;20033;-57
2023/06/29 08:44:49;;;;;;;4.68;2.08;;;22.50;63.60;;;;;;5016089;28;20393;-55
2023/06/29 08:47:16;;;;;;;2.28;2.15;;;22.60;63.60;;;;;;5024576;28;20021;-56
2023/06/29 08:49:42;;;;;;;2.42;2.22;;;22.70;63.70;;;;;;5029153;28;20615;-56
2023/06/29 08:52:15;;;;;;;2.47;1.95;;;22.70;63.60;;;;;;5026139;28;20041;-54
2023/06/29 08:54:42;;;;;;;2.63;2.40;;;22.80;63.50;;;;;;5028354;28;20064;-58
2023/06/29 08:57:09;;;;;;;2.17;1.98;;;22.80;63.30;;;;;;5030052;28;20033;-58
2023/06/29 08:59:37;;;;;;;2.60;2.00;;;22.80;63.30;;;;;;5022710;28;20163;-59
2023/06/29 09:02:04;;;;;;;2.38;2.17;;;22.80;63.40;;;;;;5029400;28;20139;-58
2023/06/29 09:04:30;;;;;;;2.55;2.35;;;22.70;63.40;;;;;;5024721;28;20072;-55
2023/06/29 09:06:56;;;;;;;2.70;2.50;;;22.60;63.90;;;;;;5022260;28;20284;-54
2023/06/29 09:09:22;;;;;;;6.43;2.38;;;22.50;63.40;;;;;;5022213;28;20060;-57
2023/06/29 09:11:49;;;;;;;4.38;2.58;;;22.50;63.70;;;;;;5024997;28;20033;-58
2023/06/29 09:14:14;;;;;;;2.97;2.67;;;22.40;65.10;;;;;;5026737;28;20470;-56
2023/06/29 09:16:58;;;;;;;4.50;3.50;;;22.40;64.80;;;;;;5026238;28;20034;-56
2023/06/29 09:19:24;;;;;;;4.20;3.33;;;22.30;65.50;;;;;;5026020;28;20381;-58
2023/06/29 09:21:50;;;;;;;3.55;3.08;;;22.30;66.10;;;;;;5024549;28;20032;-56
2023/06/29 09:24:17;;;;;;;4.00;3.20;;;22.30;66.50;;;;;;5018142;28;20848;-57
2023/06/29 09:26:43;;;;;;;5.60;3.33;;;22.30;66.70;;;;;;5027024;28;20029;-53
2023/06/29 09:29:09;;;;;;;3.67;3.17;;;22.40;66.70;;;;;;5024903;28;20469;-55
2023/06/29 09:31:37;;;;;;;4.45;3.08;;;22.40;66.50;;;;;;5020202;28;20099;-53
2023/06/29 09:34:17;;;;;;;3.15;2.85;;;22.40;66.40;;;;;;5018957;28;20038;-55
2023/06/29 09:36:43;;;;;;;3.88;2.70;;;22.50;66.40;;;;;;5020114;28;20037;-57
2023/06/29 09:39:09;;;;;;;2.75;2.30;;;22.50;66.20;;;;;;5022889;28;20026;-58
2023/06/29 09:41:54;;;;;;;2.88;2.63;;;22.60;65.90;;;;;;5017473;28;20033;-51
2023/06/29 09:44:22;;;;;;;4.47;2.75;;;22.60;65.50;;;;;;5020935;28;20057;-54
2023/06/29 09:46:48;;;;;;;3.13;2.58;;;22.60;65.80;;;;;;5014759;28;20797;-55
2023/06/29 09:49:14;;;;;;;2.75;2.53;;;22.60;65.60;;;;;;4886825;28;20030;-57
2023/06/29 09:51:41;;;;;;;3.20;2.30;;;22.60;65.40;;;;;;5019551;28;20114;-56
2023/06/29 09:54:13;;;;;;;3.65;2.92;;;22.60;65.40;;;;;;5022731;28;20116;-59
2023/06/29 09:56:40;;;;;;;3.33;2.95;;;22.70;65.50;;;;;;5024182;28;20026;-55
2023/06/29 09:59:10;;;;;;;3.33;3.00;;;22.70;65.60;;;;;;5019268;28;20035;-56
2023/06/29 10:01:36;;;;;;;3.25;2.85;;;22.80;65.90;;;;;;5027951;28;20029;-53
2023/06/29 10:04:04;;;;;;;3.88;3.05;;;22.80;66.30;;;;;;5020508;28;20497;-56
2023/06/29 10:06:38;;;;;;;3.30;2.97;;;22.90;66.80;;;;;;5025374;28;20040;-56
2023/06/29 10:09:04;;;;;;;3.30;3.00;;;22.90;66.60;;;;;;5026558;28;20029;-55
2023/06/29 10:11:34;;;;;;;3.22;2.92;;;22.80;66.80;;;;;;5038479;28;20029;-57
2023/06/29 10:14:03;;;;;;;3.03;2.72;;;22.80;66.90;;;;;;5024182;28;20033;-58
2023/06/29 10:16:34;;;;;;;3.78;3.28;;;22.70;67.10;;;;;;5028993;28;20033;-57
2023/06/29 10:19:13;;;;;;;3.72;3.30;;;22.70;67.20;;;;;;5026344;28;20052;-54
2023/06/29 10:21:39;;;;;;;3.60;2.97;;;22.70;67.20;;;;;;5022001;28;20113;-56
2023/06/29 10:24:06;;;;;;;3.47;2.90;;;22.70;67.50;;;;;;5012963;28;20029;-54
2023/06/29 10:26:32;;;;;;;3.33;2.95;;;22.70;68.10;;;;;;5012877;28;20752;-54
2023/06/29 10:28:58;;;;;;;2.92;2.72;;;22.70;68.80;;;;;;5022769;28;20033;-53
2023/06/29 10:31:33;;;;;;;3.10;2.80;;;22.70;69.00;;;;;;5025249;28;20068;-57
2023/06/29 10:33:59;;;;;;;3.22;2.78;;;22.80;69.10;;;;;;5025414;28;20472;-49
2023/06/29 10:36:25;;;;;;;3.25;2.95;;;23.00;68.90;;;;;;5020355;28;20374;-54
2023/06/29 10:38:51;;;;;;;3.40;2.55;;;23.10;68.80;;;;;;5020240;28;20044;-52
2023/06/29 10:41:27;;;;;;;2.78;2.58;;;23.20;68.50;;;;;;5023695;28;20065;-59
2023/06/29 10:44:04;;;;;;;4.05;2.22;;;23.20;68.20;;;;;;5020109;28;20032;-54
2023/06/29 10:46:49;;;;;;;2.70;2.50;;;23.10;67.80;;;;;;5015403;28;20032;-56
2023/06/29 10:49:25;;;;;;;2.33;2.13;;;23.10;68.10;;;;;;5017776;28;20378;-53
2023/06/29 10:51:53;;;;;;;2.72;1.98;;;23.00;68.60;;;;;;5015725;28;20041;-56
2023/06/29 10:54:22;;;;;;;2.38;2.20;;;23.00;68.90;;;;;;5022680;28;20092;-54
2023/06/29 10:56:57;;;;;;;2.40;2.20;;;22.90;69.20;;;;;;5022958;28;20051;-57
2023/06/29 10:59:23;;;;;;;2.85;2.13;;;22.90;70.10;;;;;;5011866;28;20418;-56
2023/06/29 11:01:50;;;;;;;2.60;2.40;;;23.00;69.90;;;;;;5008744;28;20401;-53
2023/06/29 11:04:16;;;;;;;3.17;2.42;;;23.10;69.80;;;;;;5012810;28;20164;-54
2023/06/29 11:06:42;;;;;;;3.13;2.33;;;23.10;69.20;;;;;;5016806;28;20026;-54
2023/06/29 11:09:14;;;;;;;2.30;2.20;;;23.10;68.60;;;;;;5010664;28;20139;-57
2023/06/29 11:11:45;;;;;;;2.72;2.50;;;23.20;68.50;;;;;;5020404;28;20112;-51
2023/06/29 11:14:11;;;;;;;2.53;2.33;;;23.10;68.50;;;;;;5017644;28;20029;-54
2023/06/29 11:16:39;;;;;;;3.13;2.70;;;23.10;68.30;;;;;;5021333;28;20077;-53
2023/06/29 11:19:05;;;;;;;2.58;2.38;;;23.00;69.10;;;;;;5022428;28;20090;-51
2023/06/29 11:21:30;;;;;;;2.70;2.50;;;23.00;68.60;;;;;;5017994;28;20037;-54
2023/06/29 11:23:56;;;;;;;2.70;2.50;;;23.00;68.50;;;;;;5023000;28;20178;-56
2023/06/29 11:26:23;;;;;;;3.17;2.50;;;23.00;68.40;;;;;;5023558;28;20343;-55
2023/06/29 11:28:51;;;;;;;2.85;2.55;;;23.00;68.20;;;;;;5018174;28;20064;-57
2023/06/29 11:31:17;;;;;;;2.70;2.50;;;23.10;68.20;;;;;;5017871;28;20731;-52
2023/06/29 11:33:47;;;;;;;3.42;3.13;;;23.10;68.10;;;;;;5019837;28;20068;-53
2023/06/29 11:36:13;;;;;;;3.35;3.05;;;23.20;68.10;;;;;;5028275;28;20477;-56
2023/06/29 11:38:39;;;;;;;3.30;2.72;;;23.20;68.20;;;;;;5018436;28;20091;-55
2023/06/29 11:41:05;;;;;;;3.45;3.13;;;23.20;68.40;;;;;;5019773;28;20040;-56
2023/06/29 11:43:31;;;;;;;2.83;2.58;;;23.10;68.50;;;;;;5017245;28;20047;-53
2023/06/29 11:45:57;;;;;;;2.70;2.50;;;23.10;68.50;;;;;;5020599;28;20533;-52
2023/06/29 11:48:23;;;;;;;2.78;2.50;;;23.10;68.70;;;;;;5023169;28;20028;-54
2023/06/29 11:50:49;;;;;;;2.80;2.50;;;23.10;68.90;;;;;;5030180;28;20025;-53
2023/06/29 11:53:15;;;;;;;3.20;2.90;;;23.10;68.90;;;;;;5022365;28;20116;-55
2023/06/29 11:55:51;;;;;;;2.75;2.55;;;23.10;69.00;;;;;;5025854;28;20021;-56
2023/06/29 11:58:16;;;;;;;2.80;2.60;;;23.10;68.80;;;;;;5014236;28;20393;-54
2023/06/29 12:00:42;;;;;;;2.83;2.63;;;23.10;69.10;;;;;;5021173;28;20029;-57
2023/06/29 12:03:09;;;;;;;2.70;2.45;;;23.10;69.00;;;;;;5015739;28;20052;-58
2023/06/29 12:05:40;;;;;;;3.95;3.13;;;23.00;69.00;;;;;;5018494;28;20084;-53
2023/06/29 12:08:08;;;;;;;4.05;2.70;;;23.10;69.40;;;;;;5019018;28;20029;-50
2023/06/29 12:10:36;;;;;;;3.17;2.80;;;23.10;69.70;;;;;;5029045;28;20036;-54
2023/06/29 12:13:03;;;;;;;2.72;2.53;;;23.10;69.80;;;;;;5022695;28;20033;-53
2023/06/29 12:15:31;;;;;;;3.47;3.03;;;23.10;70.00;;;;;;5023638;28;20503;-57
2023/06/29 12:18:08;;;;;;;3.35;2.95;;;23.20;70.10;;;;;;5023002;28;20034;-53
2023/06/29 12:20:41;;;;;;;3.05;2.75;;;23.20;69.90;;;;;;5021381;28;20038;-54
2023/06/29 12:23:08;;;;;;;3.03;2.72;;;23.30;69.70;;;;;;5020915;28;20523;-54
2023/06/29 12:25:41;;;;;;;3.28;2.97;;;23.30;69.50;;;;;;5018159;28;20477;-56
2023/06/29 12:28:07;;;;;;;2.97;2.67;;;23.30;69.50;;;;;;5019116;28;20029;-56
2023/06/29 12:30:32;;;;;;;2.95;2.65;;;23.30;69.50;;;;;;5019611;28;20030;-56
2023/06/29 12:33:00;;;;;;;3.85;2.90;;;23.30;69.70;;;;;;5018060;28;20504;-51
2023/06/29 12:35:25;;;;;;;3.95;3.10;;;23.30;70.20;;;;;;5015315;28;20607;-55
2023/06/29 12:37:53;;;;;;;2.72;2.53;;;23.30;70.60;;;;;;5022729;28;20040;-53
2023/06/29 12:40:18;;;;;;;2.80;2.60;;;23.30;70.90;;;;;;5020711;28;20037;-57
2023/06/29 12:42:44;;;;;;;3.78;2.80;;;23.30;71.10;;;;;;5020021;28;20025;-57
2023/06/29 12:45:10;;;;;;;3.08;2.78;;;23.30;71.30;;;;;;5023930;28;20127;-57
2023/06/29 12:47:36;;;;;;;2.75;2.55;;;23.30;71.60;;;;;;5026372;28;20095;-57